Terminal Aerodrome Forecast
Issued by NWS

Home | Current Version | Previous Version | Text Only | Print | Product List | Glossary On
Versions: 1 2 3 4 5 6 7 8 9 10 11 12 13 14 15 16 17 18 19 20 21
000
FTUS45 KTFX 152350
TAFBZN
TAF
KBZN 152350Z 1600/1706 VRB06KT P6SM SCT060 BKN150
     FM160500 VRB03KT 3SM -SN BR BKN010 OVC030
     FM161000 VRB04KT 3/4SM -SN BR BKN006 OVC015
     FM161900 VRB06KT 3SM -SN BKN020 OVC040
     FM170100 VRB04KT P6SM BKN040=

USA.gov is the U.S. government's official web portal to all federal, state and local government web resources and services.